»·PEaware :: N444FG KSNA-KSNA

N444FG :: KSNA-KSNA

FLIGHT INFORMATION

Flight Status: Arrived
Operator: Privately registered:
United States
More flights under this callsign
Pilot: Bill F. (18685)
Aircraft: PIPER PA-28R-201 ARROW
(P28R)
More flights by this aircraft type
Origin: KSNA John Wayne-Orange Co
United States
Destination: KSNA John Wayne-Orange Co
United States
More flights between these airports :: More routes between these airports
Route: +
File this flight plan on PilotEdge
Remarks:
Altitude:
(Current/Filed)
0ft
Speed:
(Current/Filed)
0kts
Departed: 14-Apr-18 10:28 AM
Arrived: 14-Apr-18 11:04 AM
Distance/Time
Traveled:
1nm/0:36
Distance/Time
To Go:
Arrived

Flight Plot

Page will automatically refresh every two minutes.


Map Options




Map Legend


Flown Route
Filed Route
Departure Airport
Arrival Airport
Navaid (VOR, NDB)
Fix

Horizontal Profiles

Position Reports

Time Latitude Longitude Heading Altitude Ground
Speed
14-Apr-18 10:17 33.667728 -117.870475 220 59ft 0kts
14-Apr-18 10:18 33.667728 -117.870475 220 59ft 0kts
14-Apr-18 10:19 33.668591 -117.871451 34 59ft 10kts
14-Apr-18 10:20 33.670019 -117.870593 181 59ft 0kts
14-Apr-18 10:21 33.670019 -117.870593 181 59ft 0kts
14-Apr-18 10:22 33.669916 -117.870252 72 59ft 14kts
14-Apr-18 10:23 33.673850 -117.867231 6 59ft 11kts
14-Apr-18 10:24 33.678992 -117.863984 31 59ft 18kts
14-Apr-18 10:25 33.679992 -117.863685 298 59ft 0kts
14-Apr-18 10:26 33.679992 -117.863685 298 59ft 0kts
14-Apr-18 10:27 33.668686 -117.869469 186 507ft 85kts
14-Apr-18 10:28 33.642899 -117.861350 164 1000ft 102kts
14-Apr-18 10:29 33.614885 -117.850773 164 1399ft 105kts
14-Apr-18 10:30 33.586525 -117.839710 161 1811ft 112kts
14-Apr-18 10:31 33.556843 -117.824270 148 2106ft 120kts
14-Apr-18 10:32 33.529411 -117.801430 131 2413ft 117kts
14-Apr-18 10:33 33.517364 -117.764811 128 2630ft 129kts
14-Apr-18 10:34 33.487325 -117.738984 150 2687ft 132kts
14-Apr-18 10:35 33.457326 -117.713707 131 2896ft 124kts
14-Apr-18 10:36 33.441159 -117.677675 110 3304ft 121kts
14-Apr-18 10:37 33.415668 -117.663505 234 3406ft 129kts
14-Apr-18 10:38 33.427593 -117.691456 304 3645ft 55kts
14-Apr-18 10:39 33.436451 -117.715857 291 3041ft 88kts
14-Apr-18 10:40 33.449120 -117.738598 356 2761ft 89kts
14-Apr-18 10:41 33.447137 -117.735433 334 2790ft 100kts
14-Apr-18 10:42 33.446604 -117.738850 24 2560ft 105kts
14-Apr-18 10:43 33.470750 -117.752846 328 2117ft 106kts
14-Apr-18 10:44 33.494181 -117.770113 326 2017ft 92kts
14-Apr-18 10:45 33.515367 -117.786948 325 2019ft 92kts
14-Apr-18 10:46 33.537589 -117.802587 330 2153ft 96kts
14-Apr-18 10:47 33.560507 -117.820914 319 2213ft 104kts
14-Apr-18 10:48 33.583682 -117.841507 324 2199ft 102kts
14-Apr-18 10:49 33.608289 -117.856543 341 1975ft 100kts
14-Apr-18 10:50 33.634908 -117.859420 355 1390ft 94kts
14-Apr-18 10:51 33.658724 -117.859341 356 949ft 74kts
14-Apr-18 10:52 33.677804 -117.847580 32 928ft 82kts
14-Apr-18 10:53 33.694578 -117.844621 291 805ft 71kts
14-Apr-18 10:54 33.684145 -117.861525 212 141ft 67kts
14-Apr-18 10:55 33.667083 -117.870683 170 472ft 78kts
14-Apr-18 10:56 33.666209 -117.850260 25 931ft 91kts
14-Apr-18 10:57 33.684481 -117.836051 31 971ft 76kts
14-Apr-18 10:58 33.701184 -117.821671 31 1237ft 74kts
14-Apr-18 10:59 33.716203 -117.820113 291 1206ft 73kts
14-Apr-18 11:00 33.708171 -117.838480 224 826ft 66kts
14-Apr-18 11:01 33.694716 -117.853423 221 542ft 67kts
14-Apr-18 11:02 33.679294 -117.864699 208 63ft 58kts
14-Apr-18 11:03 33.673573 -117.867000 156 59ft 4kts
14-Apr-18 11:04 33.671747 -117.868367 209 59ft 13kts
14-Apr-18 11:05 33.668064 -117.871170 130 59ft 11kts
14-Apr-18 11:06 33.667445 -117.870637 222 59ft 0kts
14-Apr-18 11:07 33.667445 -117.870637 222 59ft 0kts
14-Apr-18 11:08 33.667445 -117.870637 222 59ft 0kts

Navigation Log

Ident Type
Flight plan parsing failed, navigation log unavailable